Time;durP1;ratioP1;P1;durP2;ratioP2;P2;SDS_P1;SDS_P2;PMS_P1;PMS_P2;Temp;Humidity;BMP_temperature;BMP_pressure;BME280_temperature;BME280_humidity;BME280_pressure;Samples;Min_cycle;Max_cycle;Signal;HPM_P1;HPM_P2
2023/01/15 09:28:04;;;;;;;;;0.00;0.00;;;;;16.89;54.55;100282.59;5078254;27;45417;-79
2023/01/15 09:30:30;;;;;;;;;1.00;0.00;;;;;17.06;54.58;100278.91;5055144;28;45903;-82
2023/01/15 09:32:58;;;;;;;;;0.25;0.00;;;;;17.23;54.40;100279.69;5051121;28;57569;-82
2023/01/15 09:35:24;;;;;;;;;0.00;0.00;;;;;17.45;54.32;100274.72;5068764;28;45547;-79
2023/01/15 09:37:53;;;;;;;;;0.00;0.00;;;;;17.69;54.21;100289.13;5062862;28;62594;-81
2023/01/15 09:40:49;;;;;;;;;0.00;0.00;;;;;17.81;54.26;100272.47;5055348;28;45772;-80
2023/01/15 09:43:49;;;;;;;;;0.00;0.00;;;;;18.13;54.17;100286.31;5050472;28;45450;-75
2023/01/15 09:46:37;;;;;;;;;0.50;0.00;;;;;18.32;53.74;100293.84;5048369;28;45454;-75
2023/01/15 09:49:13;;;;;;;;;0.00;0.00;;;;;18.48;53.64;100287.53;5043842;28;45765;-77
2023/01/15 09:51:55;;;;;;;;;0.50;0.00;;;;;18.62;53.50;100290.09;5053667;28;46299;-75
2023/01/15 09:54:44;;;;;;;;;0.00;0.00;;;;;18.73;53.18;100295.53;5056087;28;45647;-74
2023/01/15 09:57:14;;;;;;;;;1.75;0.00;;;;;18.91;53.07;100300.53;5054775;28;45487;-73
2023/01/15 09:59:43;;;;;;;;;0.00;0.00;;;;;19.01;52.78;100298.13;5071430;27;48252;-76
2023/01/15 10:02:43;;;;;;;;;0.75;0.00;;;;;19.09;52.92;100296.63;5069740;28;45477;-75
2023/01/15 10:05:15;;;;;;;;;1.50;0.00;;;;;19.23;52.75;100311.59;5047720;28;45288;-76
2023/01/15 10:07:56;;;;;;;;;0.50;0.00;;;;;19.31;52.54;100295.13;5071681;27;45271;-75
2023/01/15 10:10:28;;;;;;;;;0.00;0.00;;;;;19.39;52.50;100300.75;5048804;28;47208;-74
2023/01/15 10:12:59;;;;;;;;;0.00;0.00;;;;;19.43;52.05;100302.22;5036778;28;46844;-77
2023/01/15 10:15:40;;;;;;;;;0.50;0.00;;;;;19.52;52.14;100287.44;5068043;27;45552;-80
2023/01/15 10:18:07;;;;;;;;;0.50;0.00;;;;;19.57;52.03;100301.25;5046646;28;45546;-79
2023/01/15 10:20:54;;;;;;;;;0.00;0.00;;;;;19.64;51.92;100313.09;5087143;27;48086;-78
2023/01/15 10:23:35;;;;;;;;;2.75;0.00;;;;;19.70;51.90;100296.72;5052860;28;45482;-79
2023/01/15 10:26:27;;;;;;;;;0.25;0.00;;;;;19.76;51.96;100292.84;5048812;28;45806;-84
2023/01/15 10:29:38;;;;;;;;;0.00;0.00;;;;;19.82;52.02;100297.69;5042898;28;45736;-81
2023/01/15 10:32:13;;;;;;;;;0.00;0.00;;;;;19.78;52.17;100282.06;5049918;28;46396;-80
2023/01/15 10:34:51;;;;;;;;;0.00;0.00;;;;;19.88;51.78;100288.41;5083832;27;45473;-77
2023/01/15 10:37:40;;;;;;;;;0.00;0.00;;;;;19.96;51.89;100291.38;5057447;27;45476;-79
2023/01/15 10:40:24;;;;;;;;;1.50;0.00;;;;;19.98;51.71;100275.31;5038580;28;45513;-78
2023/01/15 10:43:11;;;;;;;;;1.50;0.00;;;;;20.00;51.72;100284.84;5070907;27;48302;-78
2023/01/15 10:45:59;;;;;;;;;1.25;0.00;;;;;20.07;51.57;100288.75;5038418;28;45524;-79
2023/01/15 10:48:45;;;;;;;;;0.25;0.00;;;;;20.14;51.34;100290.97;5040038;28;45504;-77
2023/01/15 10:51:20;;;;;;;;;0.00;0.00;;;;;20.16;51.51;100294.34;5037292;28;45692;-78
2023/01/15 10:53:49;;;;;;;;;0.00;0.00;;;;;20.19;51.20;100312.72;5016700;28;47037;-79
2023/01/15 10:56:31;;;;;;;;;1.50;0.00;;;;;20.22;51.43;100302.72;5035366;28;45644;-76
2023/01/15 10:59:09;;;;;;;;;0.00;0.00;;;;;20.23;51.41;100300.91;5040172;28;45478;-76
2023/01/15 11:01:36;;;;;;;;;0.00;0.00;;;;;20.23;51.31;100300.91;5038199;28;45471;-79
2023/01/15 11:04:02;;;;;;;;;0.00;0.00;;;;;20.27;50.89;100305.03;5037378;28;45551;-81
2023/01/15 11:06:29;;;;;;;;;0.25;0.25;;;;;20.30;51.31;100299.50;5040616;28;45434;-80
2023/01/15 11:08:57;;;;;;;;;0.00;0.00;;;;;20.34;50.48;100294.78;5034234;28;45650;-78
2023/01/15 11:19:35;;;;;;;;;0.50;0.00;;;;;20.32;50.58;100288.75;5035293;28;45580;-77
2023/01/15 11:20:46;;;;;;;;;2.00;0.00;;;;;20.39;50.43;100280.19;5038223;28;45495;-76
2023/01/15 11:23:15;;;;;;;;;0.00;0.00;;;;;20.29;50.31;100252.59;5053387;28;45511;-75
2023/01/15 11:25:49;;;;;;;;;0.00;0.00;;;;;20.37;50.03;100263.50;5033158;28;45734;-76
2023/01/15 11:28:15;;;;;;;;;0.25;0.25;;;;;20.31;50.10;100253.38;5018059;28;45820;-76
2023/01/15 11:30:43;;;;;;;;;1.75;0.25;;;;;20.45;49.79;100273.56;5056088;28;45395;-76
2023/01/15 11:33:25;;;;;;;;;5.00;0.00;;;;;20.45;49.65;100268.22;5035904;28;45329;-76
2023/01/15 11:35:56;;;;;;;;;2.00;0.75;;;;;20.40;49.80;100257.13;5055866;28;45431;-76
2023/01/15 11:38:22;;;;;;;;;0.25;0.25;;;;;20.44;49.43;100274.53;5071330;28;45602;-76
2023/01/15 11:40:58;;;;;;;;;1.25;0.00;;;;;20.44;49.41;100266.56;5036431;28;45397;-76
2023/01/15 11:51:56;;;;;;;;;0.00;0.00;;;;;20.38;48.98;100253.72;5040583;28;45872;-80
2023/01/15 11:54:24;;;;;;;;;1.00;0.00;;;;;20.44;48.79;100243.47;5039452;28;45339;-79
2023/01/15 11:56:50;;;;;;;;;1.75;0.00;;;;;20.47;48.67;100271.66;5038299;28;45448;-76
2023/01/15 11:59:18;;;;;;;;;1.50;0.75;;;;;20.49;48.74;100265.25;5037086;28;59275;-81
2023/01/15 12:02:00;;;;;;;;;0.25;0.25;;;;;20.43;49.08;100244.47;5034013;28;45509;-76
2023/01/15 12:04:51;;;;;;;;;2.75;1.25;;;;;20.47;49.12;100235.28;5038222;28;45455;-79
2023/01/15 12:07:17;;;;;;;;;2.00;0.50;;;;;20.54;49.85;100256.06;5034120;28;45532;-82
2023/01/15 12:09:52;;;;;;;;;2.75;0.75;;;;;20.53;49.96;100247.25;5017869;28;46145;-81
2023/01/15 12:12:34;;;;;;;;;1.00;1.00;;;;;20.54;49.82;100245.44;5040046;28;45304;-87
2023/01/15 12:15:13;;;;;;;;;2.00;0.25;;;;;20.52;49.81;100220.78;5038982;28;45478;-79
2023/01/15 12:17:56;;;;;;;;;1.00;0.00;;;;;20.59;49.93;100233.50;5036810;28;47269;-76
2023/01/15 12:20:28;;;;;;;;;1.25;1.00;;;;;20.60;49.92;100221.88;5039277;28;45284;-80
2023/01/15 12:23:19;;;;;;;;;4.25;0.00;;;;;20.61;49.78;100212.09;5038343;28;45418;-76
2023/01/15 12:25:47;;;;;;;;;1.00;0.00;;;;;20.62;50.04;100219.13;5019691;28;45429;-82
2023/01/15 12:28:35;;;;;;;;;2.00;0.00;;;;;20.63;49.79;100197.75;5033690;28;45521;-81
2023/01/15 12:31:09;;;;;;;;;1.50;1.25;;;;;20.64;49.63;100206.56;5040674;28;45376;-81
2023/01/15 12:33:39;;;;;;;;;3.00;1.00;;;;;20.64;49.55;100196.75;5036979;28;46813;-81
2023/01/15 12:36:12;;;;;;;;;0.75;0.75;;;;;20.62;49.63;100192.56;5034035;28;45345;-81
2023/01/15 12:38:40;;;;;;;;;1.50;0.00;;;;;20.65;49.25;100182.53;5039319;28;46557;-81
2023/01/15 12:47:22;;;;;;;;;1.50;0.50;;;;;20.63;49.34;100179.13;5035648;28;45996;-79
2023/01/15 12:49:59;;;;;;;;;3.50;0.75;;;;;20.66;49.24;100191.34;5039425;28;45357;-79
2023/01/15 12:52:33;;;;;;;;;2.00;0.00;;;;;20.62;49.30;100188.06;5053133;28;45297;-80
2023/01/15 12:55:19;;;;;;;;;0.75;0.00;;;;;20.54;48.87;100160.34;5036913;28;45483;-85
2023/01/15 12:57:52;;;;;;;;;0.75;0.75;;;;;20.63;48.74;100167.66;5016098;28;45487;-83
2023/01/15 13:00:28;;;;;;;;;2.00;1.00;;;;;20.67;48.88;100183.25;5035336;28;46786;-85
2023/01/15 13:03:20;;;;;;;;;2.25;0.00;;;;;20.66;48.26;100159.44;5014580;28;45511;-83
2023/01/15 13:06:04;;;;;;;;;1.00;0.50;;;;;20.66;48.55;100176.25;5054360;28;45638;-80
2023/01/15 13:08:42;;;;;;;;;1.25;0.00;;;;;20.68;48.35;100168.13;5054807;28;45614;-80
2023/01/15 13:11:11;;;;;;;;;0.75;0.75;;;;;20.68;48.71;100160.16;5035313;28;45422;-81
2023/01/15 13:13:42;;;;;;;;;1.75;0.00;;;;;20.63;48.39;100147.25;5035987;28;45663;-80
2023/01/15 13:16:07;;;;;;;;;1.75;0.75;;;;;20.69;48.58;100148.56;5040276;28;45402;-80
2023/01/15 13:18:38;;;;;;;;;3.00;0.75;;;;;20.70;48.43;100157.38;5038359;28;45408;-79
2023/01/15 13:21:19;;;;;;;;;3.75;1.00;;;;;20.70;48.01;100152.06;5038575;28;46443;-77
2023/01/15 13:24:02;;;;;;;;;3.00;1.00;;;;;20.69;48.47;100148.56;5021413;28;45585;-79
2023/01/15 13:26:30;;;;;;;;;5.25;2.00;;;;;20.69;48.44;100145.91;5038956;28;45500;-82
2023/01/15 13:29:20;;;;;;;;;3.25;1.00;;;;;20.65;48.30;100137.31;5037002;28;45547;-78
2023/01/15 13:32:08;;;;;;;;;2.75;0.75;;;;;20.69;48.02;100147.72;5037342;28;46277;-81
2023/01/15 13:34:57;;;;;;;;;2.75;1.75;;;;;20.68;48.60;100146.84;5033083;28;45479;-85
2023/01/15 13:37:33;;;;;;;;;4.50;2.00;;;;;20.69;48.44;100147.72;5036156;28;45415;-77
2023/01/15 13:40:33;;;;;;;;;1.75;1.25;;;;;20.66;48.40;100140.81;5016639;28;45467;-81
2023/01/15 13:42:59;;;;;;;;;4.75;1.25;;;;;20.70;48.38;100147.59;5034032;28;48007;-78
2023/01/15 13:45:35;;;;;;;;;5.50;2.00;;;;;20.67;48.45;100129.22;5049244;28;56479;-79
2023/01/15 13:48:39;;;;;;;;;2.25;1.00;;;;;20.70;47.87;100139.63;5035855;28;45504;-80
2023/01/15 13:51:06;;;;;;;;;1.75;1.00;;;;;20.70;48.29;100141.41;5033915;28;45553;-77
2023/01/15 13:53:44;;;;;;;;;1.00;1.00;;;;;20.70;48.08;100130.78;5052772;28;46171;-83
2023/01/15 13:56:24;;;;;;;;;4.75;1.75;;;;;20.65;48.31;100136.50;5051033;28;45308;-81
2023/01/15 13:59:33;;;;;;;;;3.00;1.25;;;;;20.71;47.96;100125.34;5020236;28;45457;-79
2023/01/15 14:02:17;;;;;;;;;4.00;1.75;;;;;20.65;48.44;100131.16;5038853;28;45450;-79
2023/01/15 14:04:45;;;;;;;;;1.00;1.00;;;;;20.60;47.74;100115.53;5035850;28;45485;-79
2023/01/15 14:07:33;;;;;;;;;3.25;2.25;;;;;20.70;47.96;100126.34;5052931;28;51061;-77
2023/01/15 14:10:16;;;;;;;;;2.75;1.00;;;;;20.69;48.33;100124.63;5015798;28;45383;-79
2023/01/15 14:12:54;;;;;;;;;3.50;2.00;;;;;20.70;48.15;100114.84;5036105;28;45645;-78
2023/01/15 14:15:36;;;;;;;;;2.50;1.00;;;;;20.67;47.79;100115.94;5054312;28;46321;-78
2023/01/15 14:18:42;;;;;;;;;2.25;1.75;;;;;20.69;47.92;100113.16;5052240;28;46171;-76
2023/01/15 14:21:22;;;;;;;;;3.50;1.75;;;;;20.68;48.05;100130.91;5052437;28;48125;-78
2023/01/15 14:24:18;;;;;;;;;2.75;2.25;;;;;20.67;48.14;100124.75;5039745;28;45438;-78
2023/01/15 14:26:53;;;;;;;;;3.25;2.00;;;;;20.67;48.17;100126.56;5041317;28;46979;-78
2023/01/15 14:29:46;;;;;;;;;2.00;2.00;;;;;20.67;47.96;100115.94;5039669;28;45546;-84
2023/01/15 14:32:37;;;;;;;;;1.00;1.00;;;;;20.66;48.04;100111.56;5033108;28;45627;-76
2023/01/15 14:35:02;;;;;;;;;2.25;2.25;;;;;20.65;47.66;100101.91;5041479;28;45855;-76
2023/01/15 14:37:38;;;;;;;;;0.75;0.75;;;;;20.66;47.99;100106.25;5058007;28;48196;-76
2023/01/15 14:40:05;;;;;;;;;2.50;1.25;;;;;20.59;48.05;100102.34;5042602;28;45462;-76
2023/01/15 14:45:35;;;;;;;;;2.25;1.75;;;;;20.63;47.87;100110.00;5059980;28;44746;-76
2023/01/15 14:48:03;;;;;;;;;2.75;1.25;;;;;20.60;47.98;100104.91;5053969;28;45342;-77
2023/01/15 14:50:39;;;;;;;;;1.75;1.25;;;;;20.62;48.06;100102.16;5038509;28;45832;-76
2023/01/15 14:53:17;;;;;;;;;3.75;1.00;;;;;20.62;47.73;100105.66;5052066;28;45312;-77
2023/01/15 14:56:00;;;;;;;;;1.00;0.75;;;;;20.61;47.90;100106.63;5049777;28;45396;-76
2023/01/15 14:59:03;;;;;;;;;2.75;0.75;;;;;20.62;47.82;100103.00;5018076;28;46997;-76
2023/01/15 15:01:35;;;;;;;;;2.50;1.00;;;;;20.62;48.02;100104.81;5049274;28;46059;-76
2023/01/15 15:04:20;;;;;;;;;0.50;0.50;;;;;20.62;47.69;100096.84;5038117;28;45486;-76
2023/01/15 15:06:50;;;;;;;;;1.00;0.50;;;;;20.62;47.82;100097.69;5038388;28;45446;-75
2023/01/15 15:09:24;;;;;;;;;1.75;1.00;;;;;20.63;47.69;100091.41;5039832;28;45537;-75
2023/01/15 15:14:37;;;;;;;;;1.75;1.00;;;;;20.65;47.98;100096.59;5040314;28;45454;-75
2023/01/15 15:17:06;;;;;;;;;2.25;0.50;;;;;20.63;47.75;100085.25;5040570;28;45485;-75
2023/01/15 15:19:38;;;;;;;;;1.00;0.75;;;;;20.66;47.69;100088.50;5041177;28;46403;-75
2023/01/15 15:22:05;;;;;;;;;2.00;1.00;;;;;20.67;47.63;100079.56;5040430;28;45416;-75
2023/01/15 15:24:35;;;;;;;;;0.00;0.00;;;;;20.68;48.11;100077.72;5052920;28;45479;-75
2023/01/15 15:27:33;;;;;;;;;1.00;1.00;;;;;20.68;47.78;100069.75;5033610;28;45378;-75
2023/01/15 15:30:06;;;;;;;;;0.25;0.25;;;;;20.68;47.83;100067.09;5065163;27;60494;-75
2023/01/15 15:32:38;;;;;;;;;0.75;0.00;;;;;20.69;47.35;100066.13;5039424;28;46285;-75
2023/01/15 15:35:05;;;;;;;;;3.75;0.75;;;;;20.67;47.61;100057.44;5045044;28;45412;-76
2023/01/15 15:37:31;;;;;;;;;1.75;0.50;;;;;20.70;47.62;100054.53;5038614;28;45805;-75
2023/01/15 15:40:01;;;;;;;;;1.50;1.50;;;;;20.71;47.85;100052.72;5044235;28;46175;-75
2023/01/15 15:51:30;;;;;;;;;2.00;0.50;;;;;20.70;47.09;100027.09;5039594;28;45928;-75
2023/01/15 15:54:25;;;;;;;;;2.00;0.00;;;;;20.70;47.27;100021.78;5041884;28;45915;-75
2023/01/15 15:56:58;;;;;;;;;0.75;0.75;;;;;20.71;47.39;100024.31;5052060;28;45370;-75
2023/01/15 15:59:31;;;;;;;;;0.25;0.25;;;;;20.65;47.49;100001.72;5042396;28;45746;-75
2023/01/15 16:01:59;;;;;;;;;0.75;0.75;;;;;20.67;47.31;100009.59;5068150;27;47988;-75
2023/01/15 16:04:25;;;;;;;;;0.75;0.75;;;;;20.65;47.04;100001.72;5046448;28;45342;-75
2023/01/15 16:06:51;;;;;;;;;1.00;1.00;;;;;20.67;47.22;99991.81;5036999;28;45535;-75
2023/01/15 16:09:23;;;;;;;;;1.50;0.00;;;;;20.69;46.84;100010.31;5020200;28;52178;-75
2023/01/15 16:11:50;;;;;;;;;1.50;0.75;;;;;20.63;47.16;99989.53;5037705;28;45412;-75
2023/01/15 16:14:17;;;;;;;;;1.00;1.00;;;;;20.69;46.83;99990.84;5018825;28;45432;-75
2023/01/15 16:16:43;;;;;;;;;1.00;0.00;;;;;20.68;47.21;99992.66;5039129;28;45451;-74
2023/01/15 16:19:15;;;;;;;;;1.00;1.00;;;;;20.66;46.99;99992.78;5025111;28;45364;-75
2023/01/15 16:21:41;;;;;;;;;1.75;0.00;;;;;20.67;47.23;99994.47;5053936;28;45659;-74
2023/01/15 16:24:09;;;;;;;;;0.75;0.75;;;;;20.66;47.27;99997.25;5040357;28;45722;-75
2023/01/15 16:26:35;;;;;;;;;2.25;0.50;;;;;20.67;46.88;99997.13;5033210;28;45457;-75
2023/01/15 16:29:03;;;;;;;;;0.00;0.00;;;;;20.64;47.08;99999.19;5038657;28;45455;-75
2023/01/15 16:31:36;;;;;;;;;2.00;1.00;;;;;20.65;46.71;99991.09;5045566;28;46462;-75
2023/01/15 16:34:02;;;;;;;;;0.75;0.00;;;;;20.66;47.03;100005.22;5043306;28;45802;-75
2023/01/15 16:36:38;;;;;;;;;1.00;0.50;;;;;20.70;46.67;100003.16;5038685;28;45292;-75
2023/01/15 16:39:04;;;;;;;;;1.00;1.00;;;;;20.67;46.81;100004.25;5036058;28;45434;-75
2023/01/15 16:41:37;;;;;;;;;0.00;0.00;;;;;20.67;46.79;100009.59;5038478;28;47372;-75
2023/01/15 16:44:04;;;;;;;;;2.00;0.75;;;;;20.68;46.98;99997.97;5021364;28;45277;-75
2023/01/15 16:46:41;;;;;;;;;1.25;1.00;;;;;20.72;46.87;100007.41;5037926;28;45401;-75
2023/01/15 16:49:25;;;;;;;;;1.25;0.75;;;;;20.69;47.22;100010.31;5042447;28;45553;-75
2023/01/15 16:51:52;;;;;;;;;1.25;0.00;;;;;20.74;46.96;99999.31;5054574;28;46402;-76
2023/01/15 16:54:29;;;;;;;;;1.00;0.50;;;;;20.75;46.86;99998.31;5042560;28;45600;-75
2023/01/15 16:56:57;;;;;;;;;2.25;0.00;;;;;20.73;46.79;100003.75;5070200;28;45480;-75
2023/01/15 16:59:26;;;;;;;;;1.75;1.25;;;;;20.76;46.80;99986.72;5054972;28;45727;-76
2023/01/15 17:01:55;;;;;;;;;1.00;1.00;;;;;20.70;46.52;99981.88;5030201;28;47176;-76
2023/01/15 17:04:28;;;;;;;;;1.00;1.00;;;;;20.75;46.63;99977.91;5046964;28;45601;-75
2023/01/15 17:07:04;;;;;;;;;2.00;1.00;;;;;20.69;46.49;99959.78;5036434;28;45471;-75
2023/01/15 17:09:32;;;;;;;;;0.75;0.75;;;;;20.75;47.02;99969.94;5039386;28;44729;-75
2023/01/15 17:12:00;;;;;;;;;1.00;1.00;;;;;20.71;46.67;99971.13;5032189;28;46823;-75
2023/01/15 17:14:28;;;;;;;;;0.75;0.00;;;;;20.73;46.39;99958.56;5054606;28;45248;-75
2023/01/15 17:17:20;;;;;;;;;0.00;0.00;;;;;20.76;46.31;99957.47;5049821;28;45549;-75
2023/01/15 17:19:46;;;;;;;;;0.00;0.00;;;;;20.75;46.75;99953.09;5039048;28;45502;-76
2023/01/15 17:22:24;;;;;;;;;3.00;1.00;;;;;20.76;46.25;99949.50;5031299;28;47093;-75
2023/01/15 17:24:54;;;;;;;;;0.00;0.00;;;;;20.72;46.66;99943.59;5037977;28;45501;-75
2023/01/15 17:27:20;;;;;;;;;0.50;0.25;;;;;20.75;46.24;99955.78;5036965;28;45562;-75
2023/01/15 17:29:45;;;;;;;;;0.00;0.00;;;;;20.75;46.70;99939.81;5021698;28;52735;-75
2023/01/15 17:32:14;;;;;;;;;0.00;0.00;;;;;20.71;46.27;99944.53;5051431;28;45387;-75
2023/01/15 17:34:40;;;;;;;;;1.75;0.00;;;;;20.73;46.56;99944.41;5037585;28;45323;-76
2023/01/15 17:37:05;;;;;;;;;0.50;0.50;;;;;20.70;46.13;99936.69;5038097;28;45352;-75
2023/01/15 17:39:31;;;;;;;;;1.75;0.00;;;;;20.69;46.25;99932.34;5030728;28;45526;-75
2023/01/15 17:41:56;;;;;;;;;0.00;0.00;;;;;20.62;46.48;99924.03;5050952;28;46706;-75
2023/01/15 17:44:21;;;;;;;;;1.75;1.00;;;;;20.62;46.64;99914.22;5024906;28;45471;-76
2023/01/15 17:46:48;;;;;;;;;1.75;0.00;;;;;20.59;46.15;99914.47;5035884;28;45439;-76
2023/01/15 17:49:13;;;;;;;;;1.50;0.00;;;;;20.71;46.60;99943.72;5023240;28;45317;-75
2023/01/15 17:51:39;;;;;;;;;4.75;1.00;;;;;20.65;46.42;99940.56;5040058;28;46494;-75
2023/01/15 17:54:04;;;;;;;;;1.50;0.25;;;;;20.73;46.22;99939.09;5024141;28;45261;-75
2023/01/15 18:07:34;;;;;;;;;2.00;1.00;;;;;20.72;46.67;99919.66;5039221;28;45469;-75
2023/01/15 18:10:00;;;;;;;;;0.50;0.50;;;;;20.73;46.46;99921.31;5041203;28;45480;-76
2023/01/15 18:12:26;;;;;;;;;2.00;0.00;;;;;20.75;46.50;99923.84;5056673;28;48086;-75
2023/01/15 18:14:51;;;;;;;;;2.00;0.25;;;;;20.76;46.68;99921.06;5013850;28;45308;-76
2023/01/15 18:17:16;;;;;;;;;4.00;1.00;;;;;20.74;46.34;99919.53;5035042;28;45625;-75
2023/01/15 18:19:42;;;;;;;;;3.00;1.00;;;;;20.77;46.63;99908.63;5029594;28;64720;-76
2023/01/15 18:22:09;;;;;;;;;2.00;1.00;;;;;20.77;46.03;99913.94;5038683;28;46834;-75
2023/01/15 18:24:34;;;;;;;;;2.00;0.00;;;;;20.78;45.84;99912.97;5029747;28;45257;-75
2023/01/15 18:26:59;;;;;;;;;0.75;0.75;;;;;20.77;45.98;99901.50;5036894;28;45322;-76
2023/01/15 18:29:25;;;;;;;;;1.25;1.00;;;;;20.75;46.32;99884.84;5041127;28;45765;-76
2023/01/15 18:31:50;;;;;;;;;0.50;0.25;;;;;20.77;46.28;99890.00;5037824;28;47804;-76
2023/01/15 18:34:16;;;;;;;;;1.75;1.00;;;;;20.78;46.14;99895.19;5034830;28;57032;-76
2023/01/15 18:36:41;;;;;;;;;1.50;1.00;;;;;20.79;46.29;99890.75;5037061;28;55228;-78
2023/01/15 18:39:11;;;;;;;;;2.00;2.00;;;;;20.73;46.13;99868.16;5035684;28;45486;-83
2023/01/15 18:46:51;;;;;;;;;1.50;1.00;;;;;20.79;46.24;99872.97;5037938;28;45384;-76
2023/01/15 18:49:17;;;;;;;;;0.75;0.75;;;;;20.78;46.08;99871.28;5018940;28;46155;-78
2023/01/15 18:51:42;;;;;;;;;1.00;1.00;;;;;20.79;46.34;99872.13;5016592;28;48155;-76
2023/01/15 18:54:09;;;;;;;;;3.00;0.75;;;;;20.80;46.06;99865.81;5036955;28;45454;-78
2023/01/15 18:56:37;;;;;;;;;2.00;1.75;;;;;20.77;46.40;99860.75;5036595;28;45581;-77
2023/01/15 18:59:05;;;;;;;;;3.75;2.00;;;;;20.77;45.83;99855.44;5036682;28;45391;-85
2023/01/15 19:01:31;;;;;;;;;4.75;2.50;;;;;20.77;46.02;99850.97;5039240;28;47657;-77
2023/01/15 19:03:57;;;;;;;;;6.00;2.00;;;;;20.79;46.91;99853.53;5033960;28;64634;-78
2023/01/15 19:06:23;;;;;;;;;6.00;2.75;;;;;20.72;47.07;99841.72;5037470;28;45546;-79
2023/01/15 19:08:48;;;;;;;;;3.25;2.25;;;;;20.79;47.04;99857.00;5034781;28;45367;-81
2023/01/15 19:11:14;;;;;;;;;3.00;3.00;;;;;20.80;47.48;99848.03;5052658;28;47085;-87
2023/01/15 19:13:39;;;;;;;;;3.00;3.00;;;;;20.80;47.31;99847.22;5015520;28;46061;-77
2023/01/15 19:18:53;;;;;;;;;5.75;2.75;;;;;20.78;47.67;99831.38;5053574;28;45456;-78
2023/01/15 19:21:19;;;;;;;;;5.25;2.00;;;;;20.81;47.66;99835.63;5054811;28;45344;-80
2023/01/15 19:23:45;;;;;;;;;3.50;2.00;;;;;20.77;48.52;99821.72;5036357;28;45539;-80
2023/01/15 19:26:11;;;;;;;;;5.00;4.00;;;;;20.78;48.29;99826.06;5032095;28;45582;-74
2023/01/15 19:28:36;;;;;;;;;5.25;4.75;;;;;20.81;48.59;99827.63;5053000;28;56172;-78
2023/01/15 19:33:49;;;;;;;;;3.00;2.00;;;;;20.76;48.87;99808.56;5038178;28;45797;-80
2023/01/15 19:36:15;;;;;;;;;3.50;2.25;;;;;20.79;48.91;99805.66;5035723;28;45511;-78
2023/01/15 19:38:40;;;;;;;;;3.25;3.00;;;;;20.72;48.53;99789.38;5040509;28;45338;-79
2023/01/15 19:54:56;;;;;;;;;4.75;2.00;;;;;20.74;49.08;99776.78;5039943;28;45387;-80
2023/01/15 19:57:21;;;;;;;;;3.00;3.00;;;;;20.74;49.42;99767.97;5019553;28;45442;-84
2023/01/15 19:59:47;;;;;;;;;3.50;2.50;;;;;20.78;49.32;99764.06;5035589;28;45550;-80
2023/01/15 20:02:15;;;;;;;;;3.50;3.00;;;;;20.78;49.34;99767.56;5036995;28;45559;-78
2023/01/15 20:04:41;;;;;;;;;3.00;2.00;;;;;20.78;49.05;99766.72;5015767;28;45986;-78
2023/01/15 20:07:07;;;;;;;;;4.75;2.50;;;;;20.72;49.41;99757.47;5030588;28;45711;-78
2023/01/15 20:09:33;;;;;;;;;2.00;2.00;;;;;20.67;48.99;99735.75;5036920;28;45386;-78
2023/01/15 20:14:42;;;;;;;;;2.50;2.50;;;;;20.74;49.25;99746.69;5034366;28;45320;-77
2023/01/15 20:17:07;;;;;;;;;4.25;2.00;;;;;20.67;49.30;99738.41;5037225;28;60004;-77
2023/01/15 20:19:33;;;;;;;;;2.00;2.00;;;;;20.72;49.42;99741.50;5036557;28;53615;-80
2023/01/15 20:21:58;;;;;;;;;3.25;2.75;;;;;20.71;49.17;99737.16;5038333;28;46119;-77
2023/01/15 20:24:23;;;;;;;;;3.00;2.50;;;;;20.70;49.77;99735.50;5020971;28;51445;-76
2023/01/15 20:26:49;;;;;;;;;5.25;2.00;;;;;20.73;49.28;99729.88;5034425;28;54776;-76
2023/01/15 20:29:14;;;;;;;;;2.00;1.75;;;;;20.73;49.11;99721.06;5033848;28;45257;-77
2023/01/15 20:31:39;;;;;;;;;4.75;2.00;;;;;20.75;49.18;99729.75;5048389;28;46853;-78
2023/01/15 20:34:05;;;;;;;;;2.50;2.00;;;;;20.71;49.68;99713.22;5038795;28;63318;-76
2023/01/15 20:36:33;;;;;;;;;3.75;2.25;;;;;20.75;49.31;99725.31;5038528;28;45319;-76
2023/01/15 20:38:59;;;;;;;;;2.75;1.50;;;;;20.75;49.43;99709.34;5037655;28;45459;-76
2023/01/15 20:46:54;;;;;;;;;1.50;1.00;;;;;20.69;49.51;99699.22;5035646;28;45423;-77
2023/01/15 20:49:31;;;;;;;;;4.75;2.00;;;;;20.72;49.75;99700.78;5054459;28;56860;-78
2023/01/15 20:51:56;;;;;;;;;1.75;1.00;;;;;20.73;49.16;99695.31;5024133;28;47350;-77
2023/01/15 20:54:23;;;;;;;;;4.25;3.50;;;;;20.67;49.54;99672.78;5053439;28;45435;-79
2023/01/15 20:56:49;;;;;;;;;2.75;1.75;;;;;20.64;49.88;99672.19;5054407;28;45314;-77
2023/01/15 20:59:14;;;;;;;;;4.00;2.25;;;;;20.70;49.72;99671.69;5026258;28;46376;-76
2023/01/15 21:01:39;;;;;;;;;5.75;2.00;;;;;20.73;50.03;99670.56;5049727;28;45428;-81
2023/01/15 21:04:06;;;;;;;;;4.00;3.00;;;;;20.72;49.69;99677.69;5014782;28;45714;-78
2023/01/15 21:06:32;;;;;;;;;3.00;2.25;;;;;20.71;49.91;99672.50;5032298;28;45560;-77
2023/01/15 21:08:57;;;;;;;;;4.00;4.00;;;;;20.54;47.73;99657.97;5036872;28;45387;-76
2023/01/15 21:11:23;;;;;;;;;4.00;2.00;;;;;20.18;46.79;99641.56;5031920;28;46584;-75
2023/01/15 21:13:49;;;;;;;;;1.75;1.75;;;;;19.82;46.10;99643.69;5033395;28;45301;-77
2023/01/15 21:16:14;;;;;;;;;4.00;1.75;;;;;19.52;45.50;99655.81;5042202;28;45405;-76
2023/01/15 21:18:43;;;;;;;;;3.75;1.75;;;;;19.14;45.32;99646.50;5038774;28;45278;-77
2023/01/15 21:21:14;;;;;;;;;2.00;1.00;;;;;18.74;45.17;99639.88;5047409;28;46140;-76
2023/01/15 21:23:42;;;;;;;;;3.50;1.50;;;;;18.44;44.79;99644.94;5026535;28;45366;-76
2023/01/15 21:26:07;;;;;;;;;2.50;1.00;;;;;18.13;44.92;99639.31;5022759;28;45182;-76
2023/01/15 21:28:32;;;;;;;;;4.50;2.00;;;;;17.88;44.89;99629.75;5038402;28;53219;-76
2023/01/15 21:31:02;;;;;;;;;3.00;2.00;;;;;17.56;44.58;99625.84;5027526;28;66257;-76
2023/01/15 21:33:28;;;;;;;;;3.25;2.25;;;;;17.30;44.60;99619.00;5037322;28;45433;-77
2023/01/15 21:35:53;;;;;;;;;1.00;1.00;;;;;17.05;44.47;99620.75;5024685;28;45458;-76
2023/01/15 21:38:18;;;;;;;;;4.50;2.00;;;;;16.82;44.87;99617.97;5034162;28;55736;-76
2023/01/15 21:40:44;;;;;;;;;8.00;2.00;;;;;16.67;45.26;99605.81;5034335;28;46957;-77
2023/01/15 21:44:30;;;;;;;;;2.00;2.00;;;;;16.60;46.33;99589.56;5037054;28;45356;-77
2023/01/15 21:46:02;;;;;;;;;1.00;1.00;;;;;16.67;46.73;99576.78;5038046;28;45490;-77
2023/01/15 21:48:28;;;;;;;;;1.00;0.50;;;;;16.75;47.37;99568.28;5050481;28;45490;-78
2023/01/15 21:50:53;;;;;;;;;3.00;1.00;;;;;16.84;47.63;99554.47;5039725;28;51733;-78
2023/01/15 21:53:18;;;;;;;;;3.00;1.75;;;;;17.02;47.99;99568.16;5037781;28;59568;-78
2023/01/15 21:55:50;;;;;;;;;2.25;1.25;;;;;17.10;48.10;99544.63;5035549;28;58859;-78
2023/01/15 21:58:16;;;;;;;;;3.00;2.00;;;;;17.24;48.63;99539.16;5036315;28;45532;-78
2023/01/15 22:00:42;;;;;;;;;3.00;2.00;;;;;17.32;48.54;99519.28;5037567;28;45595;-77
2023/01/15 22:03:09;;;;;;;;;2.50;1.75;;;;;17.53;48.52;99533.53;5037021;28;45459;-78
2023/01/15 22:05:35;;;;;;;;;3.00;1.00;;;;;17.60;49.07;99529.44;5033994;28;45598;-77
2023/01/15 22:08:03;;;;;;;;;2.00;1.25;;;;;17.74;48.89;99522.25;5020222;28;45803;-77
2023/01/15 22:10:30;;;;;;;;;1.00;1.00;;;;;17.83;49.01;99513.63;5016267;28;47584;-77
2023/01/15 22:12:56;;;;;;;;;0.50;0.50;;;;;17.99;49.05;99511.50;5034392;28;45264;-76
2023/01/15 22:15:21;;;;;;;;;0.75;0.75;;;;;18.09;49.08;99502.84;5014307;28;45569;-77
2023/01/15 22:17:50;;;;;;;;;1.50;1.50;;;;;18.18;49.24;99497.69;5053973;28;45376;-77
2023/01/15 22:20:16;;;;;;;;;1.25;1.25;;;;;18.24;49.30;99487.53;5017251;28;48184;-77
2023/01/15 22:22:41;;;;;;;;;2.25;0.25;;;;;18.32;49.33;99479.84;5038009;28;45490;-77
2023/01/15 22:25:09;;;;;;;;;0.50;0.50;;;;;18.46;49.61;99470.81;5037751;28;45546;-77
2023/01/15 22:27:39;;;;;;;;;2.25;0.75;;;;;18.54;49.45;99481.63;5032662;28;45628;-77
2023/01/15 22:30:06;;;;;;;;;1.00;0.50;;;;;18.62;49.71;99470.41;5049468;28;45487;-77
2023/01/15 22:32:31;;;;;;;;;1.00;1.00;;;;;18.64;49.54;99445.47;5053904;28;46254;-77
2023/01/15 22:34:57;;;;;;;;;1.00;1.00;;;;;18.72;49.44;99435.09;5037598;28;45478;-77
2023/01/15 22:37:25;;;;;;;;;1.25;0.75;;;;;18.76;49.36;99417.94;5037944;28;60480;-77
2023/01/15 22:39:51;;;;;;;;;1.75;1.75;;;;;18.89;49.61;99414.31;5022233;28;46907;-76